createdAt,value
2023-02-11T00:00:16.968Z,15.00
2023-02-11T00:02:46.128Z,15.52
2023-02-11T00:05:14.409Z,14.55
2023-02-11T00:07:40.907Z,14.68
2023-02-11T00:10:08.338Z,15.10
2023-02-11T00:12:36.100Z,15.18
2023-02-11T00:15:03.119Z,14.88
2023-02-11T00:17:29.877Z,14.73
2023-02-11T00:19:56.383Z,14.43
2023-02-11T00:22:23.009Z,14.98
2023-02-11T00:24:49.514Z,14.15
2023-02-11T00:27:16.126Z,14.02
2023-02-11T00:29:43.863Z,12.98
2023-02-11T00:32:10.830Z,12.77
2023-02-11T00:34:38.384Z,13.52
2023-02-11T00:37:05.705Z,12.70
2023-02-11T00:39:32.517Z,12.80
2023-02-11T00:41:59.500Z,12.68
2023-02-11T00:44:26.855Z,12.95
2023-02-11T00:46:53.645Z,12.60
2023-02-11T00:49:20.131Z,12.43
2023-02-11T00:51:48.359Z,12.82
2023-02-11T00:54:15.037Z,12.77
2023-02-11T00:56:41.539Z,11.73
2023-02-11T00:59:08.152Z,12.23
2023-02-11T01:01:35.696Z,12.80
2023-02-11T01:04:02.322Z,11.60
2023-02-11T01:06:29.013Z,12.50
2023-02-11T01:08:55.526Z,11.63
2023-02-11T01:11:22.308Z,12.18
2023-02-11T01:13:50.252Z,11.77
2023-02-11T01:16:17.650Z,12.60
2023-02-11T01:18:46.389Z,11.60
2023-02-11T01:21:12.884Z,12.30
2023-02-11T01:23:39.804Z,11.05
2023-02-11T01:26:06.785Z,12.48
2023-02-11T01:28:33.842Z,11.68
2023-02-11T01:31:02.082Z,12.13
2023-02-11T01:33:29.067Z,12.88
2023-02-11T01:35:55.568Z,11.80
2023-02-11T01:38:25.580Z,12.93
2023-02-11T01:40:58.082Z,12.50
2023-02-11T01:43:26.565Z,12.80
2023-02-11T01:46:00.000Z,12.25
2023-02-11T01:48:34.584Z,11.82
2023-02-11T01:51:30.784Z,11.50
2023-02-11T01:54:17.330Z,12.55
2023-02-11T01:57:08.605Z,11.73
2023-02-11T01:59:44.125Z,12.20
2023-02-11T02:02:13.650Z,13.13
2023-02-11T02:04:57.555Z,12.80
2023-02-11T02:07:34.855Z,13.23
2023-02-11T02:10:07.873Z,12.50
2023-02-11T02:12:36.576Z,12.43
2023-02-11T02:15:23.872Z,12.18
2023-02-11T02:17:59.075Z,12.88
2023-02-11T02:21:02.511Z,12.10
2023-02-11T02:23:52.404Z,12.55
2023-02-11T02:26:37.249Z,12.35
2023-02-11T02:29:31.990Z,11.95
2023-02-11T02:32:20.139Z,12.60
2023-02-11T02:37:34.030Z,11.25
2023-02-11T02:40:05.158Z,12.65
2023-02-11T02:42:32.569Z,12.65
2023-02-11T02:44:59.456Z,12.07
2023-02-11T02:47:26.096Z,12.85
2023-02-11T02:49:52.508Z,11.30
2023-02-11T02:52:35.844Z,11.55
2023-02-11T02:55:28.829Z,11.80
2023-02-11T02:57:58.260Z,11.07
2023-02-11T03:00:32.888Z,11.98
2023-02-11T03:03:28.956Z,11.25
2023-02-11T03:06:02.457Z,10.90
2023-02-11T03:08:44.222Z,10.57
2023-02-11T03:13:41.050Z,10.02
2023-02-11T03:16:18.609Z,10.27
2023-02-11T03:18:51.438Z,10.15
2023-02-11T03:21:19.939Z,10.55
2023-02-11T03:23:55.309Z,10.68
2023-02-11T03:26:35.845Z,10.95
2023-02-11T03:29:39.993Z,10.35
2023-02-11T03:32:27.967Z,10.80
2023-02-11T03:35:02.716Z,9.68
2023-02-11T03:37:35.171Z,10.77
2023-02-11T03:40:08.989Z,10.00
2023-02-11T03:42:44.306Z,10.68
2023-02-11T03:47:46.175Z,10.35
2023-02-11T03:50:16.121Z,9.45
2023-02-11T03:52:43.732Z,9.25
2023-02-11T03:55:15.289Z,10.02
2023-02-11T03:57:42.040Z,10.52
2023-02-11T04:00:09.691Z,10.05
2023-02-11T04:02:39.995Z,10.98
2023-02-11T04:05:08.520Z,11.65
2023-02-11T04:07:34.951Z,10.05
2023-02-11T04:10:01.461Z,9.60
2023-02-11T04:12:28.184Z,9.35
2023-02-11T04:14:54.704Z,9.70
2023-02-11T04:17:21.383Z,10.48
2023-02-11T04:19:47.845Z,9.23
2023-02-11T04:22:14.747Z,9.73
2023-02-11T04:24:41.566Z,10.13
2023-02-11T04:27:08.221Z,9.68
2023-02-11T04:29:35.084Z,9.75
2023-02-11T04:32:01.700Z,9.90
2023-02-11T04:34:28.447Z,10.57
2023-02-11T04:36:55.121Z,9.57
2023-02-11T04:39:21.767Z,10.05
2023-02-11T04:41:48.402Z,9.55
2023-02-11T04:44:15.042Z,9.57
2023-02-11T04:46:41.630Z,9.75
2023-02-11T04:49:08.328Z,9.27
2023-02-11T04:51:34.788Z,9.40
2023-02-11T04:54:01.183Z,9.57
2023-02-11T04:56:27.651Z,10.38
2023-02-11T04:58:54.493Z,9.40
2023-02-11T05:01:21.316Z,10.13
2023-02-11T05:03:47.949Z,9.60
2023-02-11T05:06:14.921Z,9.85
2023-02-11T05:08:41.593Z,10.32
2023-02-11T05:11:14.370Z,10.73
2023-02-11T05:13:41.014Z,10.32
2023-02-11T05:16:07.425Z,10.88
2023-02-11T05:18:33.920Z,10.98
2023-02-11T05:21:06.305Z,10.10
2023-02-11T05:23:34.339Z,10.75
2023-02-11T05:26:01.271Z,11.50
2023-02-11T05:28:28.281Z,11.65
2023-02-11T05:30:55.459Z,11.07
2023-02-11T05:33:22.170Z,12.30
2023-02-11T05:35:49.289Z,12.38
2023-02-11T05:38:16.239Z,11.35
2023-02-11T05:40:43.062Z,10.18
2023-02-11T05:43:09.696Z,11.55
2023-02-11T05:45:36.382Z,10.88
2023-02-11T05:48:03.937Z,10.93
2023-02-11T05:50:30.584Z,11.68
2023-02-11T05:52:57.465Z,11.57
2023-02-11T05:55:24.467Z,12.27
2023-02-11T05:57:50.916Z,12.48
2023-02-11T06:00:17.705Z,10.52
2023-02-11T06:02:44.484Z,13.38
2023-02-11T06:05:11.651Z,11.40
2023-02-11T06:07:38.326Z,11.68
2023-02-11T06:10:05.553Z,12.63
2023-02-11T06:12:32.266Z,11.40
2023-02-11T06:14:58.784Z,13.32
2023-02-11T06:17:25.378Z,12.73
2023-02-11T06:19:51.850Z,12.93
2023-02-11T06:22:18.348Z,12.70
2023-02-11T06:25:00.228Z,12.73
2023-02-11T06:27:27.997Z,12.98
2023-02-11T06:29:54.420Z,11.23
2023-02-11T06:32:42.223Z,11.32
2023-02-11T06:35:09.489Z,12.15
2023-02-11T06:37:38.090Z,11.68
2023-02-11T06:40:05.139Z,11.70
2023-02-11T06:42:31.917Z,11.35
2023-02-11T06:44:58.399Z,11.82
2023-02-11T06:47:25.385Z,11.95
2023-02-11T06:49:52.035Z,12.27
2023-02-11T06:52:18.719Z,13.52
2023-02-11T06:54:45.338Z,12.20
2023-02-11T06:57:11.881Z,11.80
2023-02-11T06:59:38.295Z,12.65
2023-02-11T07:02:05.053Z,12.38
2023-02-11T07:04:31.799Z,12.65
2023-02-11T07:06:58.474Z,11.65
2023-02-11T07:09:25.168Z,12.48
2023-02-11T07:11:51.878Z,12.23
2023-02-11T07:14:18.637Z,11.82
2023-02-11T07:16:45.115Z,11.13
2023-02-11T07:19:11.535Z,11.45
2023-02-11T07:21:38.009Z,12.32
2023-02-11T07:24:11.098Z,11.52
2023-02-11T07:26:38.479Z,10.98
2023-02-11T07:29:05.600Z,12.18
2023-02-11T07:31:33.182Z,12.02
2023-02-11T07:34:01.642Z,11.00
2023-02-11T07:36:32.128Z,11.52
2023-02-11T07:39:00.135Z,11.32
2023-02-11T07:41:26.974Z,11.75
2023-02-11T07:43:54.242Z,11.45
2023-02-11T07:46:26.431Z,11.15
2023-02-11T07:48:54.906Z,11.35
2023-02-11T07:51:24.817Z,11.35
2023-02-11T07:53:52.089Z,12.00
2023-02-11T07:56:20.524Z,11.57
2023-02-11T07:58:47.511Z,11.95
2023-02-11T08:01:19.034Z,11.10
2023-02-11T08:03:46.060Z,11.05
2023-02-11T08:06:15.431Z,11.07
2023-02-11T08:08:42.728Z,11.95
2023-02-11T08:11:15.587Z,12.68
2023-02-11T08:13:43.092Z,12.50
2023-02-11T08:16:17.163Z,14.57
2023-02-11T08:18:43.702Z,14.10
2023-02-11T08:21:10.748Z,13.82
2023-02-11T08:23:39.101Z,14.57
2023-02-11T08:26:20.449Z,14.07
2023-02-11T08:28:48.942Z,13.90
2023-02-11T08:31:19.202Z,13.98
2023-02-11T08:33:46.185Z,14.68
2023-02-11T08:36:18.656Z,14.38
2023-02-11T08:38:45.371Z,14.50
2023-02-11T08:41:14.826Z,14.70
2023-02-11T08:43:42.472Z,13.95
2023-02-11T08:46:12.165Z,14.35
2023-02-11T08:48:39.026Z,15.10
2023-02-11T08:51:08.123Z,14.73
2023-02-11T08:53:35.632Z,14.60
2023-02-11T08:56:02.786Z,16.45
2023-02-11T08:58:29.305Z,14.98
2023-02-11T09:00:55.832Z,15.13
2023-02-11T09:03:22.580Z,14.30
2023-02-11T09:05:50.749Z,14.70
2023-02-11T09:08:17.480Z,15.75
2023-02-11T09:10:45.475Z,15.50
2023-02-11T09:13:12.941Z,15.20
2023-02-11T09:15:39.641Z,16.08
2023-02-11T09:18:06.156Z,16.13
2023-02-11T09:20:32.784Z,17.05
2023-02-11T09:22:59.540Z,16.17
2023-02-11T09:25:26.606Z,15.48
2023-02-11T09:27:53.710Z,17.25
2023-02-11T09:30:20.172Z,17.45
2023-02-11T09:32:46.925Z,16.60
2023-02-11T09:35:13.587Z,16.13
2023-02-11T09:37:40.240Z,16.42
2023-02-11T09:40:07.347Z,10.07
2023-02-11T09:42:45.233Z,11.70
2023-02-11T09:45:24.117Z,16.15
2023-02-11T09:47:56.948Z,17.33
2023-02-11T09:50:35.479Z,17.63
2023-02-11T09:53:13.846Z,16.00
2023-02-11T09:55:44.771Z,16.17
2023-02-11T09:58:17.366Z,17.50
2023-02-11T10:00:50.391Z,16.73
2023-02-11T10:03:39.726Z,17.42
2023-02-11T10:06:25.018Z,17.55
2023-02-11T10:09:26.232Z,15.93
2023-02-11T10:14:56.432Z,14.85
2023-02-11T10:18:01.563Z,15.93
2023-02-11T10:20:33.621Z,17.23
2023-02-11T10:23:08.181Z,15.60
2023-02-11T10:25:40.020Z,16.80
2023-02-11T10:28:16.337Z,16.75
2023-02-11T10:30:59.634Z,17.08
2023-02-11T10:33:51.479Z,16.88
2023-02-11T10:36:19.236Z,16.52
2023-02-11T10:38:46.174Z,17.13
2023-02-11T10:41:27.812Z,16.45
2023-02-11T10:43:55.290Z,17.10
2023-02-11T10:46:27.192Z,17.67
2023-02-11T10:48:54.069Z,17.63
2023-02-11T10:51:28.790Z,18.00
2023-02-11T10:54:04.738Z,17.83
2023-02-11T10:56:34.888Z,17.42
2023-02-11T10:59:21.979Z,18.30
2023-02-11T11:01:56.748Z,19.27
2023-02-11T11:04:45.236Z,15.88
2023-02-11T11:07:13.677Z,17.80
2023-02-11T11:10:02.347Z,18.00
2023-02-11T11:12:35.409Z,17.65
2023-02-11T11:15:25.017Z,17.05
2023-02-11T11:18:21.252Z,18.92
2023-02-11T11:21:01.125Z,16.67
2023-02-11T11:23:30.064Z,17.40
2023-02-11T11:28:47.119Z,17.40
2023-02-11T11:31:23.027Z,16.98
2023-02-11T11:33:52.416Z,17.33
2023-02-11T11:36:25.622Z,17.25
2023-02-11T11:39:00.705Z,19.02
2023-02-11T11:41:31.066Z,17.67
2023-02-11T11:44:26.018Z,18.50
2023-02-11T11:47:16.914Z,19.40
2023-02-11T11:49:53.911Z,17.00
2023-02-11T11:53:07.508Z,17.58
2023-02-11T11:55:47.134Z,18.08
2023-02-11T11:58:20.347Z,18.52
2023-02-11T12:01:05.766Z,17.95
2023-02-11T12:03:52.873Z,17.30
2023-02-11T12:06:19.467Z,17.77
2023-02-11T12:09:04.929Z,20.42
2023-02-11T12:11:45.903Z,18.70
2023-02-11T12:14:33.117Z,18.35
2023-02-11T12:17:32.329Z,18.70
2023-02-11T12:20:19.871Z,18.95
2023-02-11T12:22:52.486Z,19.48
2023-02-11T12:25:26.949Z,17.98
2023-02-11T12:28:07.578Z,17.60
2023-02-11T12:30:43.050Z,19.17
2023-02-11T12:33:32.095Z,21.00
2023-02-11T12:36:10.355Z,17.95
2023-02-11T12:38:59.366Z,18.48
2023-02-11T12:42:22.823Z,19.20
2023-02-11T12:44:59.789Z,18.67
2023-02-11T12:47:26.350Z,19.38
2023-02-11T12:50:06.608Z,20.15
2023-02-11T12:52:48.837Z,19.08
2023-02-11T12:55:28.126Z,18.27
2023-02-11T12:57:57.764Z,18.75
2023-02-11T13:00:37.073Z,19.35
2023-02-11T13:03:12.687Z,18.65
2023-02-11T13:06:17.756Z,18.73
2023-02-11T13:08:48.297Z,18.40
2023-02-11T13:11:43.913Z,20.08
2023-02-11T13:14:26.548Z,19.58
2023-02-11T13:16:55.293Z,19.40
2023-02-11T13:19:43.349Z,21.35
2023-02-11T13:22:31.742Z,18.45
2023-02-11T13:25:15.979Z,19.25
2023-02-11T13:28:00.178Z,20.35
2023-02-11T13:30:35.294Z,19.17
2023-02-11T13:33:17.149Z,20.10
2023-02-11T13:35:49.538Z,19.73
2023-02-11T13:38:55.040Z,19.73
2023-02-11T13:41:28.683Z,20.55
2023-02-11T13:44:13.663Z,18.95
2023-02-11T13:46:54.453Z,20.40
2023-02-11T13:49:24.521Z,20.20
2023-02-11T13:51:52.969Z,20.27
2023-02-11T13:54:27.028Z,19.95
2023-02-11T13:57:22.151Z,21.58
2023-02-11T13:59:52.349Z,19.90
2023-02-11T14:03:03.030Z,20.17
2023-02-11T14:05:51.333Z,21.50
2023-02-11T14:08:42.340Z,5.53
2023-02-11T14:11:29.551Z,10.85
2023-02-11T14:14:23.614Z,20.85
2023-02-11T14:16:59.447Z,19.98
2023-02-11T14:19:49.949Z,20.60
2023-02-11T14:22:29.566Z,20.77
2023-02-11T14:24:57.797Z,21.30
2023-02-11T14:27:52.224Z,19.73
2023-02-11T14:30:30.666Z,19.17
2023-02-11T14:33:25.976Z,20.80
2023-02-11T14:36:05.661Z,20.63
2023-02-11T14:38:49.509Z,20.98
2023-02-11T14:41:24.407Z,21.02
2023-02-11T14:43:57.838Z,20.52
2023-02-11T14:46:30.089Z,21.77
2023-02-11T14:49:00.209Z,21.00
2023-02-11T14:51:32.304Z,20.60
2023-02-11T14:54:07.411Z,20.75
2023-02-11T14:56:37.016Z,20.30
2023-02-11T14:59:03.641Z,20.15
2023-02-11T15:01:33.989Z,21.30
2023-02-11T15:04:03.833Z,20.70
2023-02-11T15:06:38.048Z,21.33
2023-02-11T15:09:17.668Z,20.52
2023-02-11T15:11:47.778Z,18.88
2023-02-11T15:14:27.346Z,20.65
2023-02-11T15:16:59.820Z,21.33
2023-02-11T15:19:34.352Z,21.40
2023-02-11T15:22:05.804Z,19.23
2023-02-11T15:24:35.578Z,20.95
2023-02-11T15:27:15.666Z,19.77
2023-02-11T15:29:49.404Z,21.88
2023-02-11T15:32:23.864Z,20.75
2023-02-11T15:34:52.748Z,19.60
2023-02-11T15:39:47.649Z,17.60
2023-02-11T15:42:19.786Z,19.25
2023-02-11T15:44:52.307Z,20.55
2023-02-11T15:47:29.534Z,19.55
2023-02-11T15:49:56.259Z,20.52
2023-02-11T15:52:26.271Z,19.40
2023-02-11T15:54:55.912Z,20.63
2023-02-11T15:57:23.126Z,20.17
2023-02-11T15:59:53.229Z,19.67
2023-02-11T16:02:32.179Z,19.58
2023-02-11T16:05:02.491Z,19.15
2023-02-11T16:07:47.740Z,20.25
2023-02-11T16:10:30.659Z,19.08
2023-02-11T16:13:07.148Z,19.95
2023-02-11T16:15:34.064Z,19.23
2023-02-11T16:18:30.987Z,20.30
2023-02-11T16:21:06.927Z,19.92
2023-02-11T16:23:37.848Z,19.30
2023-02-11T16:26:13.206Z,20.90
2023-02-11T16:31:07.389Z,19.20
2023-02-11T16:33:34.266Z,21.60
2023-02-11T16:36:02.374Z,21.08
2023-02-11T16:38:30.611Z,20.42
2023-02-11T16:40:57.182Z,19.23
2023-02-11T16:43:24.096Z,19.77
2023-02-11T16:45:50.959Z,20.60
2023-02-11T16:48:20.199Z,20.98
2023-02-11T16:50:53.169Z,22.90
2023-02-11T16:53:23.494Z,19.92
2023-02-11T16:55:51.598Z,19.58
2023-02-11T16:58:19.877Z,21.85
2023-02-11T17:00:49.079Z,21.88
2023-02-11T17:03:23.295Z,20.48
2023-02-11T17:05:55.656Z,21.10
2023-02-11T17:08:22.769Z,20.83
2023-02-11T17:10:49.897Z,20.88
2023-02-11T17:13:16.663Z,20.70
2023-02-11T17:15:43.510Z,20.27
2023-02-11T17:18:14.352Z,21.13
2023-02-11T17:20:42.722Z,21.48
2023-02-11T17:23:09.740Z,22.63
2023-02-11T17:25:37.815Z,21.50
2023-02-11T17:28:05.727Z,21.50
2023-02-11T17:30:32.542Z,22.10
2023-02-11T17:33:00.648Z,23.00
2023-02-11T17:35:27.931Z,22.58
2023-02-11T17:37:54.714Z,22.05
2023-02-11T17:42:53.215Z,21.15
2023-02-11T17:45:22.166Z,21.58
2023-02-11T17:47:49.873Z,22.05
2023-02-11T17:50:17.860Z,21.65
2023-02-11T17:52:44.440Z,22.13
2023-02-11T17:55:11.451Z,20.65
2023-02-11T17:57:38.576Z,22.08
2023-02-11T18:00:08.066Z,21.42
2023-02-11T18:02:39.728Z,23.95
2023-02-11T18:05:07.871Z,24.20
2023-02-11T18:07:34.638Z,22.45
2023-02-11T18:10:02.335Z,22.80
2023-02-11T18:12:28.859Z,23.45
2023-02-11T18:14:57.975Z,24.25
2023-02-11T18:17:24.929Z,23.58
2023-02-11T18:19:58.046Z,23.77
2023-02-11T18:22:25.245Z,24.02
2023-02-11T18:24:55.125Z,23.83
2023-02-11T18:27:22.574Z,24.38
2023-02-11T18:29:49.152Z,23.45
2023-02-11T18:32:16.261Z,24.80
2023-02-11T18:34:43.092Z,24.85
2023-02-11T18:37:10.525Z,25.88
2023-02-11T18:39:37.503Z,25.30
2023-02-11T18:42:04.074Z,25.00
2023-02-11T18:44:30.704Z,24.70
2023-02-11T18:46:57.247Z,24.83
2023-02-11T18:49:23.780Z,25.83
2023-02-11T18:51:50.448Z,26.75
2023-02-11T18:54:17.013Z,26.58
2023-02-11T18:56:43.902Z,24.48
2023-02-11T18:59:10.889Z,25.77
2023-02-11T19:01:40.225Z,26.55
2023-02-11T19:04:07.122Z,23.75
2023-02-11T19:06:37.523Z,24.80
2023-02-11T19:09:11.385Z,26.35
2023-02-11T19:11:49.857Z,26.75
2023-02-11T19:14:23.059Z,26.60
2023-02-11T19:16:52.750Z,24.00
2023-02-11T19:19:20.082Z,24.60
2023-02-11T19:21:47.312Z,27.15
2023-02-11T19:24:21.741Z,25.02
2023-02-11T19:26:50.949Z,23.77
2023-02-11T19:29:19.090Z,25.92
2023-02-11T19:31:46.315Z,25.67
2023-02-11T19:34:16.645Z,28.13
2023-02-11T19:36:43.710Z,26.40
2023-02-11T19:39:12.849Z,26.92
2023-02-11T19:41:39.904Z,28.30
2023-02-11T19:44:07.711Z,8.20
2023-02-11T19:46:37.437Z,10.80
2023-02-11T19:49:05.048Z,28.98
2023-02-11T19:51:33.506Z,26.52
2023-02-11T19:54:00.613Z,26.02
2023-02-11T19:56:30.236Z,24.85
2023-02-11T19:58:57.459Z,25.65
2023-02-11T20:01:25.788Z,25.58
2023-02-11T20:03:55.079Z,25.02
2023-02-11T20:06:26.996Z,25.60
2023-02-11T20:09:01.236Z,25.52
2023-02-11T20:11:30.061Z,25.42
2023-02-11T20:16:40.793Z,23.98
2023-02-11T20:19:17.565Z,24.05
2023-02-11T20:21:47.046Z,24.60
2023-02-11T20:24:14.504Z,23.40
2023-02-11T20:26:42.603Z,24.48
2023-02-11T20:29:09.452Z,24.02
2023-02-11T20:31:36.411Z,24.50
2023-02-11T20:34:03.490Z,23.85
2023-02-11T20:36:32.634Z,24.13
2023-02-11T20:39:00.442Z,26.00
2023-02-11T20:41:30.819Z,25.48
2023-02-11T20:43:59.902Z,24.73
2023-02-11T20:46:28.829Z,25.88
2023-02-11T20:48:56.449Z,27.52
2023-02-11T20:51:29.181Z,27.83
2023-02-11T20:53:57.518Z,25.35
2023-02-11T20:56:27.561Z,26.38
2023-02-11T20:58:54.734Z,26.02
2023-02-11T21:01:33.194Z,26.02
2023-02-11T21:04:16.672Z,27.25
2023-02-11T21:06:52.277Z,25.05
2023-02-11T21:09:22.082Z,26.27
2023-02-11T21:11:51.488Z,25.17
2023-02-11T21:14:19.628Z,25.05
2023-02-11T21:16:47.477Z,25.38
2023-02-11T21:19:14.433Z,23.92
2023-02-11T21:21:41.695Z,26.33
2023-02-11T21:24:10.380Z,26.48
2023-02-11T21:26:37.759Z,27.58
2023-02-11T21:29:05.891Z,25.92
2023-02-11T21:31:34.630Z,26.25
2023-02-11T21:36:29.851Z,24.70
2023-02-11T21:38:56.870Z,25.90
2023-02-11T21:41:24.792Z,25.20
2023-02-11T21:43:52.202Z,25.38
2023-02-11T21:46:20.417Z,26.80
2023-02-11T21:48:47.777Z,24.58
2023-02-11T21:51:23.907Z,25.73
2023-02-11T21:53:58.978Z,26.75
2023-02-11T21:56:28.329Z,25.55
2023-02-11T21:58:57.324Z,24.42
2023-02-11T22:01:27.314Z,26.58
2023-02-11T22:03:53.820Z,25.92
2023-02-11T22:06:26.079Z,24.65
2023-02-11T22:08:53.761Z,25.00
2023-02-11T22:11:20.944Z,23.90
2023-02-11T22:13:47.499Z,23.55
2023-02-11T22:16:16.626Z,25.63
2023-02-11T22:18:46.560Z,23.95
2023-02-11T22:21:18.418Z,25.20
2023-02-11T22:23:45.265Z,25.45
2023-02-11T22:26:15.044Z,26.42
2023-02-11T22:28:42.699Z,24.65
2023-02-11T22:31:24.532Z,25.52
2023-02-11T22:33:52.056Z,27.48
2023-02-11T22:36:24.308Z,24.48
2023-02-11T22:38:51.606Z,25.83
2023-02-11T22:41:20.106Z,23.80
2023-02-11T22:43:47.111Z,24.85
2023-02-11T22:46:17.030Z,26.00
2023-02-11T22:48:43.807Z,26.67
2023-02-11T22:51:31.792Z,25.15
2023-02-11T22:54:01.623Z,24.98
2023-02-11T22:56:30.293Z,25.67
2023-02-11T23:01:28.777Z,24.23
2023-02-11T23:03:56.310Z,23.73
2023-02-11T23:06:22.756Z,22.75
2023-02-11T23:08:49.236Z,25.08
2023-02-11T23:11:19.412Z,25.13
2023-02-11T23:13:48.180Z,25.50
2023-02-11T23:16:20.807Z,25.00
2023-02-11T23:18:48.906Z,24.48
2023-02-11T23:21:22.346Z,25.00
2023-02-11T23:23:53.637Z,24.23
2023-02-11T23:26:20.235Z,25.38
2023-02-11T23:28:47.515Z,25.80
2023-02-11T23:31:22.367Z,24.33
2023-02-11T23:33:49.548Z,26.17
2023-02-11T23:36:17.192Z,25.40
2023-02-11T23:38:44.479Z,22.80
2023-02-11T23:41:11.743Z,23.75
2023-02-11T23:43:38.296Z,23.55
2023-02-11T23:46:05.728Z,23.05
2023-02-11T23:48:32.650Z,23.70
2023-02-11T23:50:59.295Z,24.80
2023-02-11T23:53:25.765Z,23.73
2023-02-11T23:55:52.368Z,23.55
2023-02-11T23:58:19.183Z,23.10
